Time;durP1;ratioP1;P1;durP2;ratioP2;P2;SDS_P1;SDS_P2;PMS_P1;PMS_P2;Temp;Humidity;BMP_temperature;BMP_pressure;BME280_temperature;BME280_humidity;BME280_pressure;Samples;Min_cycle;Max_cycle;Signal;HPM_P1;HPM_P2
2023/12/08 00:00:18;;;;;;;4.75;2.90;;;2.10;99.90;;;;;;5046950;28;20044;-84
2023/12/08 00:02:43;;;;;;;4.30;2.47;;;2.10;99.90;;;;;;5032819;28;20068;-83
2023/12/08 00:05:09;;;;;;;5.25;2.47;;;2.10;99.90;;;;;;5039872;28;20052;-83
2023/12/08 00:07:35;;;;;;;5.30;2.97;;;2.10;99.90;;;;;;5067956;28;20060;-83
2023/12/08 00:10:02;;;;;;;6.25;3.03;;;2.10;99.90;;;;;;5032842;28;20064;-83
2023/12/08 00:12:28;;;;;;;7.78;3.15;;;2.10;99.90;;;;;;5040990;28;20033;-84
2023/12/08 00:14:54;;;;;;;6.32;2.78;;;2.10;99.90;;;;;;5049058;28;20566;-84
2023/12/08 00:17:20;;;;;;;5.05;2.40;;;2.10;99.90;;;;;;5047900;28;20053;-84
2023/12/08 00:19:45;;;;;;;4.47;2.47;;;2.10;99.90;;;;;;5050280;28;20021;-84
2023/12/08 00:22:11;;;;;;;4.20;2.03;;;2.10;99.90;;;;;;5027416;28;20533;-84
2023/12/08 00:24:37;;;;;;;4.60;2.15;;;2.10;99.90;;;;;;5049230;28;20385;-83
2023/12/08 00:27:03;;;;;;;4.82;2.20;;;2.10;99.90;;;;;;5050354;28;20440;-83
2023/12/08 00:29:29;;;;;;;4.53;2.47;;;2.10;99.90;;;;;;5030973;28;20283;-83
2023/12/08 00:31:55;;;;;;;4.18;2.22;;;2.10;99.90;;;;;;5038670;28;20075;-83
2023/12/08 00:34:20;;;;;;;4.43;2.05;;;2.10;99.90;;;;;;5049749;28;20067;-83
2023/12/08 00:36:46;;;;;;;5.15;2.40;;;2.10;99.90;;;;;;5046488;28;20460;-83
2023/12/08 00:39:12;;;;;;;5.10;2.25;;;2.10;99.90;;;;;;5037233;28;20067;-83
2023/12/08 00:41:38;;;;;;;6.78;3.17;;;2.10;99.90;;;;;;5050879;28;20047;-84
2023/12/08 00:44:04;;;;;;;4.07;2.08;;;2.10;99.90;;;;;;5047182;28;20390;-83
2023/12/08 00:46:30;;;;;;;5.75;2.80;;;2.10;99.90;;;;;;5037705;28;20480;-83
2023/12/08 00:48:55;;;;;;;4.22;2.22;;;2.10;99.90;;;;;;5048595;28;20071;-83
2023/12/08 00:51:21;;;;;;;4.78;2.88;;;2.00;99.90;;;;;;5051358;28;20061;-84
2023/12/08 00:53:46;;;;;;;6.00;3.20;;;2.00;99.90;;;;;;5050137;28;20044;-84
2023/12/08 00:56:12;;;;;;;4.95;2.75;;;2.00;99.90;;;;;;5063609;28;20026;-83
2023/12/08 00:58:38;;;;;;;5.28;2.72;;;2.10;99.90;;;;;;5047314;28;20052;-83
2023/12/08 01:01:04;;;;;;;6.15;3.58;;;2.00;99.90;;;;;;5037613;28;20048;-83
2023/12/08 01:03:30;;;;;;;7.90;2.97;;;2.00;99.90;;;;;;5049448;28;20029;-83
2023/12/08 01:05:56;;;;;;;7.07;3.60;;;2.00;99.90;;;;;;5049692;28;20035;-83
2023/12/08 01:08:22;;;;;;;7.95;3.65;;;2.00;99.90;;;;;;5038098;28;20110;-83
2023/12/08 01:10:47;;;;;;;5.13;2.17;;;2.10;99.90;;;;;;5039711;28;20069;-84
2023/12/08 01:13:13;;;;;;;7.35;4.05;;;2.00;99.90;;;;;;5037169;28;20079;-83
2023/12/08 01:15:39;;;;;;;6.03;2.72;;;2.00;99.90;;;;;;5066289;28;20025;-83
2023/12/08 01:18:04;;;;;;;5.82;3.10;;;2.10;99.90;;;;;;5033811;28;20147;-84
2023/12/08 01:20:31;;;;;;;5.90;3.20;;;2.10;99.90;;;;;;5047294;28;20031;-84
2023/12/08 01:22:56;;;;;;;5.35;2.97;;;2.10;99.90;;;;;;5048472;28;20052;-83
2023/12/08 01:25:22;;;;;;;4.93;2.85;;;2.10;99.90;;;;;;5066771;28;20444;-83
2023/12/08 01:27:47;;;;;;;5.78;3.00;;;2.10;99.90;;;;;;5047982;28;20049;-84
2023/12/08 01:30:13;;;;;;;5.28;2.55;;;2.10;99.90;;;;;;5064984;28;20051;-83
2023/12/08 01:32:39;;;;;;;5.32;2.30;;;2.10;99.90;;;;;;5079141;28;20029;-83
2023/12/08 01:35:05;;;;;;;5.60;2.30;;;2.10;99.90;;;;;;5046022;28;20029;-83
2023/12/08 01:37:30;;;;;;;4.72;2.03;;;2.10;99.90;;;;;;5049951;28;20033;-83
2023/12/08 01:39:56;;;;;;;4.20;2.22;;;2.10;99.90;;;;;;5038579;28;20025;-85
2023/12/08 01:42:22;;;;;;;4.57;2.08;;;2.20;99.90;;;;;;5036726;28;20413;-84
2023/12/08 01:44:47;;;;;;;4.30;2.13;;;2.10;99.90;;;;;;5049254;28;20029;-84
2023/12/08 01:47:13;;;;;;;5.70;2.67;;;2.10;99.90;;;;;;5039629;28;20108;-85
2023/12/08 01:49:40;;;;;;;6.90;2.67;;;2.10;99.90;;;;;;5045732;28;20041;-84
2023/12/08 01:52:07;;;;;;;5.35;3.13;;;2.10;99.90;;;;;;5036474;28;20032;-84
2023/12/08 01:54:34;;;;;;;5.00;2.42;;;2.10;99.90;;;;;;5064388;28;20496;-84
2023/12/08 01:57:01;;;;;;;5.50;2.88;;;2.20;99.90;;;;;;5033507;28;20044;-85
2023/12/08 01:59:27;;;;;;;5.38;3.13;;;2.10;99.90;;;;;;5046170;28;20025;-82
2023/12/08 02:01:53;;;;;;;6.55;2.95;;;2.20;99.90;;;;;;5064766;28;20041;-82
2023/12/08 02:04:19;;;;;;;4.38;2.40;;;2.20;99.90;;;;;;5048349;28;20397;-84
2023/12/08 02:06:44;;;;;;;5.82;3.17;;;2.20;99.90;;;;;;5045835;28;20030;-84
2023/12/08 02:09:10;;;;;;;5.95;3.05;;;2.20;99.90;;;;;;5039892;28;20044;-84
2023/12/08 02:11:37;;;;;;;5.78;2.78;;;2.20;99.90;;;;;;5035873;28;20072;-84
2023/12/08 02:14:03;;;;;;;5.57;2.38;;;2.20;99.90;;;;;;5047778;28;20481;-83
2023/12/08 02:16:50;;;;;;;4.82;2.25;;;2.20;99.90;;;;;;5049033;28;20031;-83
2023/12/08 02:19:17;;;;;;;4.57;2.30;;;2.20;99.90;;;;;;5035604;28;20103;-84
2023/12/08 02:21:43;;;;;;;4.13;2.20;;;2.20;99.90;;;;;;5043253;28;20112;-83
2023/12/08 02:24:09;;;;;;;4.15;2.33;;;2.20;99.90;;;;;;5049459;28;20075;-84
2023/12/08 02:26:35;;;;;;;3.72;2.05;;;2.20;99.90;;;;;;5036335;28;20354;-83
2023/12/08 02:29:01;;;;;;;5.35;2.58;;;2.30;99.90;;;;;;5049364;28;20029;-83
2023/12/08 02:31:47;;;;;;;4.13;2.15;;;2.30;99.90;;;;;;5049392;28;20021;-85
2023/12/08 02:34:16;;;;;;;4.63;2.33;;;2.30;99.90;;;;;;5047023;28;20029;-84
2023/12/08 02:36:45;;;;;;;6.03;3.08;;;2.30;99.90;;;;;;5029559;28;20035;-83
2023/12/08 02:39:12;;;;;;;5.50;2.80;;;2.40;99.90;;;;;;5029891;28;20389;-83
2023/12/08 02:41:38;;;;;;;5.47;3.28;;;2.40;99.90;;;;;;5032735;28;20299;-84
2023/12/08 02:44:04;;;;;;;5.15;2.88;;;2.30;99.90;;;;;;5061120;28;20270;-83
2023/12/08 02:46:29;;;;;;;5.93;3.17;;;2.30;99.90;;;;;;5064951;28;20029;-82
2023/12/08 02:48:55;;;;;;;6.43;3.47;;;2.30;99.90;;;;;;5048164;28;20124;-82
2023/12/08 02:51:20;;;;;;;5.70;3.25;;;2.40;99.90;;;;;;5041702;28;20070;-82
2023/12/08 02:53:46;;;;;;;6.10;3.20;;;2.40;99.90;;;;;;5044612;28;20029;-82
2023/12/08 02:56:12;;;;;;;6.70;3.67;;;2.30;99.90;;;;;;5047557;28;20017;-82
2023/12/08 02:58:37;;;;;;;5.85;3.38;;;2.40;99.90;;;;;;5038641;28;20029;-82
2023/12/08 03:01:03;;;;;;;5.18;2.60;;;2.40;99.90;;;;;;5046705;28;20128;-83
2023/12/08 03:03:29;;;;;;;6.20;3.70;;;2.40;99.90;;;;;;5046234;28;20324;-82
2023/12/08 03:05:54;;;;;;;5.35;2.90;;;2.40;99.90;;;;;;5072537;28;20503;-82
2023/12/08 03:08:20;;;;;;;7.07;3.10;;;2.40;99.90;;;;;;5048376;28;20477;-83
2023/12/08 03:10:46;;;;;;;5.00;2.95;;;2.40;99.90;;;;;;5029252;28;20025;-84
2023/12/08 03:13:11;;;;;;;6.20;2.85;;;2.40;99.90;;;;;;5028800;28;20413;-83
2023/12/08 03:15:37;;;;;;;5.25;2.50;;;2.40;99.90;;;;;;5045174;28;20139;-82
2023/12/08 03:18:02;;;;;;;6.60;2.95;;;2.30;99.90;;;;;;5028361;28;20127;-83
2023/12/08 03:20:28;;;;;;;5.88;2.83;;;2.40;99.90;;;;;;5028858;28;20116;-82
2023/12/08 03:22:55;;;;;;;4.50;2.20;;;2.40;99.90;;;;;;5048492;28;20056;-82
2023/12/08 03:25:21;;;;;;;4.50;1.90;;;2.30;99.90;;;;;;5049219;28;20108;-83
2023/12/08 03:27:46;;;;;;;3.80;1.70;;;2.30;99.90;;;;;;5052588;28;20156;-84
2023/12/08 03:30:13;;;;;;;5.78;3.33;;;2.30;99.90;;;;;;5048028;28;20060;-84
2023/12/08 03:32:38;;;;;;;5.90;3.20;;;2.30;99.90;;;;;;5052123;28;20033;-82
2023/12/08 03:35:04;;;;;;;3.92;2.08;;;2.30;99.90;;;;;;5048437;28;20036;-83
2023/12/08 03:37:30;;;;;;;6.05;3.28;;;2.30;99.90;;;;;;5049644;28;20029;-83
2023/12/08 03:39:56;;;;;;;5.68;3.55;;;2.30;99.90;;;;;;5039816;28;20027;-82
2023/12/08 03:42:21;;;;;;;6.05;3.22;;;2.30;99.90;;;;;;5048665;28;20025;-82
2023/12/08 03:44:47;;;;;;;6.25;3.25;;;2.30;99.90;;;;;;5052319;28;20033;-83
2023/12/08 03:47:13;;;;;;;7.88;3.88;;;2.40;99.90;;;;;;5047586;28;20029;-82
2023/12/08 03:49:38;;;;;;;7.50;3.42;;;2.30;99.90;;;;;;5049442;28;20032;-83
2023/12/08 03:52:04;;;;;;;6.20;3.30;;;2.30;99.90;;;;;;5067981;28;20045;-82
2023/12/08 03:54:30;;;;;;;6.57;4.03;;;2.30;99.90;;;;;;5050054;28;20036;-82
2023/12/08 03:56:56;;;;;;;8.07;3.65;;;2.40;99.90;;;;;;5041726;28;20037;-83
2023/12/08 03:59:22;;;;;;;5.22;3.03;;;2.30;99.90;;;;;;5038491;28;20181;-83
2023/12/08 04:01:51;;;;;;;5.93;3.40;;;2.40;99.90;;;;;;5050354;28;20139;-82
2023/12/08 04:04:17;;;;;;;8.77;4.45;;;2.40;99.90;;;;;;5045946;28;20032;-83
2023/12/08 04:06:42;;;;;;;7.35;3.90;;;2.40;99.90;;;;;;5035989;28;20040;-84
2023/12/08 04:09:08;;;;;;;6.20;3.67;;;2.40;99.90;;;;;;5052164;28;20040;-83
2023/12/08 04:11:34;;;;;;;8.00;4.97;;;2.30;99.90;;;;;;5050011;28;20025;-83
2023/12/08 04:13:59;;;;;;;6.53;3.60;;;2.40;99.90;;;;;;5040655;28;20426;-83
2023/12/08 04:16:25;;;;;;;6.80;4.30;;;2.40;99.90;;;;;;5079051;28;20025;-82
2023/12/08 04:18:50;;;;;;;7.53;3.42;;;2.40;99.90;;;;;;5066370;28;20053;-82
2023/12/08 04:21:19;;;;;;;7.63;3.47;;;2.40;99.90;;;;;;5062857;28;20033;-83
2023/12/08 04:23:45;;;;;;;7.43;3.95;;;2.40;99.90;;;;;;5065242;28;20017;-84
2023/12/08 04:26:11;;;;;;;8.13;3.20;;;2.40;99.90;;;;;;5048941;28;20021;-82
2023/12/08 04:28:37;;;;;;;7.18;3.47;;;2.40;99.90;;;;;;5046951;28;20034;-82
2023/12/08 04:31:04;;;;;;;5.38;2.78;;;2.40;99.90;;;;;;5034056;28;20060;-82
2023/12/08 04:33:29;;;;;;;7.97;3.28;;;2.40;99.90;;;;;;5050702;28;20294;-83
2023/12/08 04:35:55;;;;;;;5.63;3.13;;;2.40;99.90;;;;;;5048783;28;20370;-82
2023/12/08 04:38:20;;;;;;;6.07;3.30;;;2.40;99.90;;;;;;5065453;28;20029;-83
2023/12/08 04:40:46;;;;;;;6.30;3.42;;;2.40;99.90;;;;;;5080377;28;20038;-83
2023/12/08 04:43:12;;;;;;;6.05;3.63;;;2.40;99.90;;;;;;5050665;28;20040;-83
2023/12/08 04:45:37;;;;;;;7.35;4.53;;;2.40;99.90;;;;;;5027904;28;20029;-82
2023/12/08 04:48:03;;;;;;;9.25;5.20;;;2.50;99.90;;;;;;5082148;28;20047;-83
2023/12/08 04:50:29;;;;;;;8.60;5.32;;;2.40;99.90;;;;;;5046585;28;20032;-83
2023/12/08 04:52:55;;;;;;;7.78;4.50;;;2.50;99.90;;;;;;5052210;28;20025;-83
2023/12/08 04:55:20;;;;;;;10.65;5.53;;;2.50;99.90;;;;;;5049290;28;20030;-84
2023/12/08 04:57:46;;;;;;;10.35;5.75;;;2.40;99.90;;;;;;5049086;28;20037;-82
2023/12/08 05:00:12;;;;;;;10.82;4.78;;;2.40;99.90;;;;;;5050247;28;20028;-83
2023/12/08 05:02:37;;;;;;;8.45;4.68;;;2.50;99.90;;;;;;5049063;28;20041;-82
2023/12/08 05:05:03;;;;;;;8.60;5.25;;;2.50;99.90;;;;;;5046634;28;20564;-83
2023/12/08 05:07:29;;;;;;;8.90;5.10;;;2.50;99.90;;;;;;5081312;28;20044;-82
2023/12/08 05:09:55;;;;;;;8.38;5.00;;;2.40;99.90;;;;;;5050235;28;20100;-82
2023/12/08 05:12:20;;;;;;;7.70;4.35;;;2.50;99.90;;;;;;5066685;28;20036;-83
2023/12/08 05:14:46;;;;;;;5.53;3.20;;;2.50;99.90;;;;;;5047453;28;20025;-82
2023/12/08 05:17:12;;;;;;;6.93;4.15;;;2.50;99.90;;;;;;5048407;28;20025;-83
2023/12/08 05:19:37;;;;;;;8.13;5.03;;;2.50;99.90;;;;;;5046060;28;20060;-81
2023/12/08 05:22:04;;;;;;;7.93;4.28;;;2.50;99.90;;;;;;5044876;28;20029;-82
2023/12/08 05:24:30;;;;;;;10.35;5.60;;;2.50;99.90;;;;;;5049006;28;20115;-83
2023/12/08 05:26:55;;;;;;;7.97;4.10;;;2.50;99.90;;;;;;5046642;28;20552;-83
2023/12/08 05:29:21;;;;;;;7.15;3.88;;;2.50;99.90;;;;;;5065717;28;20052;-82
2023/12/08 05:31:47;;;;;;;7.78;4.30;;;2.50;99.90;;;;;;5049681;28;20067;-82
2023/12/08 05:34:13;;;;;;;7.05;3.80;;;2.50;99.90;;;;;;5028247;28;20061;-82
2023/12/08 05:36:38;;;;;;;7.63;4.00;;;2.50;99.90;;;;;;5049721;28;20505;-84
2023/12/08 05:39:06;;;;;;;10.50;5.28;;;2.50;99.90;;;;;;5048154;28;20548;-82
2023/12/08 05:41:31;;;;;;;9.15;5.18;;;2.50;99.90;;;;;;5045619;28;20484;-84
2023/12/08 05:43:57;;;;;;;12.35;6.43;;;2.50;99.90;;;;;;5064608;28;20025;-83
2023/12/08 05:46:22;;;;;;;11.43;6.18;;;2.50;99.90;;;;;;5048405;28;20021;-84
2023/12/08 05:48:48;;;;;;;8.80;5.18;;;2.50;99.90;;;;;;5042968;28;20042;-83
2023/12/08 05:51:14;;;;;;;10.52;5.43;;;2.50;99.90;;;;;;5049333;28;20033;-82
2023/12/08 05:53:39;;;;;;;9.70;5.13;;;2.50;99.90;;;;;;5048361;28;20489;-83
2023/12/08 05:56:05;;;;;;;7.00;4.25;;;2.50;99.90;;;;;;5048730;28;20025;-82
2023/12/08 05:58:31;;;;;;;8.65;4.95;;;2.50;99.90;;;;;;5060252;28;20017;-83
2023/12/08 06:00:57;;;;;;;10.63;5.97;;;2.50;99.90;;;;;;5047702;28;20489;-82
2023/12/08 06:03:22;;;;;;;11.40;6.35;;;2.50;99.90;;;;;;5044393;28;20021;-83
2023/12/08 06:05:49;;;;;;;9.90;6.10;;;2.50;99.90;;;;;;5031494;28;20029;-83
2023/12/08 06:08:15;;;;;;;7.63;4.25;;;2.60;99.90;;;;;;5048255;28;20029;-84
2023/12/08 06:10:41;;;;;;;10.70;5.57;;;2.60;99.90;;;;;;5045673;28;20396;-83
2023/12/08 06:13:06;;;;;;;8.05;4.53;;;2.60;99.90;;;;;;5045530;28;20024;-82
2023/12/08 06:15:32;;;;;;;11.18;5.55;;;2.60;99.90;;;;;;5046998;28;20439;-81
2023/12/08 06:17:58;;;;;;;11.95;6.15;;;2.50;99.90;;;;;;5061607;28;20033;-82
2023/12/08 06:20:23;;;;;;;13.10;6.22;;;2.60;99.90;;;;;;5047129;28;20210;-82
2023/12/08 06:22:49;;;;;;;10.00;5.43;;;2.60;99.90;;;;;;5032254;28;20548;-81
2023/12/08 06:25:15;;;;;;;9.63;5.68;;;2.60;99.90;;;;;;5028695;28;20060;-82
2023/12/08 06:27:41;;;;;;;13.43;8.15;;;2.60;99.90;;;;;;5076053;28;20451;-81
2023/12/08 06:30:11;;;;;;;14.68;8.77;;;2.60;99.90;;;;;;5063475;28;20024;-82
2023/12/08 06:32:37;;;;;;;;;;;2.60;99.90;;;;;;5048075;28;20108;-84
2023/12/08 06:35:03;;;;;;;12.30;6.80;;;2.60;99.90;;;;;;5043287;28;20023;-82
2023/12/08 06:37:28;;;;;;;12.23;7.20;;;2.60;99.90;;;;;;5034493;28;20035;-81
2023/12/08 06:39:54;;;;;;;12.52;7.20;;;2.60;99.90;;;;;;5048767;28;20549;-81
2023/12/08 06:42:21;;;;;;;11.40;6.75;;;2.60;99.90;;;;;;5041811;28;20052;-81
2023/12/08 06:44:47;;;;;;;10.43;5.75;;;2.60;99.90;;;;;;5045321;28;20380;-81
2023/12/08 06:47:13;;;;;;;10.98;6.57;;;2.60;99.90;;;;;;5078169;28;20029;-81
2023/12/08 06:49:39;;;;;;;10.93;5.93;;;2.70;99.90;;;;;;5041805;28;20025;-82
2023/12/08 06:52:05;;;;;;;11.27;5.70;;;2.70;99.90;;;;;;5045598;28;20484;-81
2023/12/08 06:54:34;;;;;;;12.95;7.32;;;2.70;99.90;;;;;;5046618;28;20029;-81
2023/12/08 06:56:59;;;;;;;10.82;6.47;;;2.70;99.90;;;;;;5030481;28;20041;-81
2023/12/08 06:59:25;;;;;;;12.70;7.18;;;2.70;99.90;;;;;;5042863;28;20079;-81
2023/12/08 07:01:50;;;;;;;10.70;6.53;;;2.70;99.90;;;;;;5047439;28;20045;-81
2023/12/08 07:04:16;;;;;;;11.43;6.25;;;2.70;99.90;;;;;;5028668;28;20484;-82
2023/12/08 07:06:42;;;;;;;11.35;6.07;;;2.70;99.90;;;;;;5043837;28;20056;-82
2023/12/08 07:09:09;;;;;;;16.33;8.65;;;2.70;99.90;;;;;;5047277;28;20033;-81
2023/12/08 07:11:34;;;;;;;12.30;7.20;;;2.70;99.90;;;;;;5035500;28;20029;-82
2023/12/08 07:14:00;;;;;;;13.30;7.90;;;2.80;99.90;;;;;;5048067;28;20078;-82
2023/12/08 07:16:26;;;;;;;13.85;8.02;;;2.80;99.90;;;;;;5046900;28;20013;-81
2023/12/08 07:18:52;;;;;;;12.27;7.20;;;2.80;99.90;;;;;;5047631;28;20073;-82
2023/12/08 07:21:18;;;;;;;17.85;9.63;;;2.80;99.90;;;;;;5046500;28;20029;-81
2023/12/08 07:23:43;;;;;;;14.90;7.75;;;2.80;99.90;;;;;;5028897;28;20033;-81
2023/12/08 07:26:10;;;;;;;13.02;7.20;;;2.80;99.90;;;;;;5039111;28;20040;-82
2023/12/08 07:28:36;;;;;;;14.15;8.23;;;2.80;99.90;;;;;;5044577;28;20080;-82
2023/12/08 07:31:02;;;;;;;14.65;7.95;;;2.90;99.90;;;;;;5044111;28;20493;-83
2023/12/08 07:33:28;;;;;;;10.95;6.38;;;2.90;99.90;;;;;;5078374;28;20029;-82
2023/12/08 07:35:54;;;;;;;13.05;7.97;;;2.90;99.90;;;;;;5030447;28;20032;-83
2023/12/08 07:38:19;;;;;;;9.80;5.35;;;2.90;99.90;;;;;;5062324;28;20041;-82
2023/12/08 07:40:45;;;;;;;9.75;5.82;;;2.90;99.90;;;;;;5035300;28;20029;-82
2023/12/08 07:43:11;;;;;;;12.60;7.38;;;2.90;99.90;;;;;;5033997;28;20021;-83
2023/12/08 07:45:37;;;;;;;13.27;8.40;;;2.90;99.90;;;;;;5047518;28;20397;-82
2023/12/08 07:48:03;;;;;;;12.82;7.30;;;2.90;99.90;;;;;;5047431;28;20040;-83
2023/12/08 07:50:29;;;;;;;18.77;10.23;;;3.00;99.90;;;;;;5044957;28;20037;-82
2023/12/08 07:52:55;;;;;;;14.40;8.05;;;3.00;99.90;;;;;;5044970;28;20481;-82
2023/12/08 07:55:20;;;;;;;14.63;7.50;;;3.00;99.90;;;;;;5045751;28;20025;-82
2023/12/08 07:57:46;;;;;;;11.07;6.32;;;3.00;99.90;;;;;;5046969;28;20485;-81
2023/12/08 08:00:12;;;;;;;13.02;7.60;;;3.00;99.90;;;;;;5041440;28;20673;-82
2023/12/08 08:02:38;;;;;;;14.45;7.45;;;3.00;99.90;;;;;;5043975;28;20127;-81
2023/12/08 08:05:07;;;;;;;12.68;6.68;;;3.10;99.90;;;;;;5047617;28;20104;-82
2023/12/08 08:07:33;;;;;;;14.32;7.75;;;3.10;99.90;;;;;;5034378;28;20037;-81
2023/12/08 08:09:58;;;;;;;12.70;7.57;;;3.10;99.90;;;;;;5063198;28;20033;-82
2023/12/08 08:12:24;;;;;;;16.63;8.65;;;3.10;99.90;;;;;;5080369;28;20112;-81
2023/12/08 08:14:50;;;;;;;12.73;7.25;;;3.10;99.90;;;;;;5051050;28;20029;-82
2023/12/08 08:17:15;;;;;;;10.63;6.95;;;3.10;99.90;;;;;;5066366;28;20068;-81
2023/12/08 08:19:41;;;;;;;12.75;6.95;;;3.10;99.90;;;;;;5049692;28;20559;-81
2023/12/08 08:22:07;;;;;;;18.05;6.88;;;3.20;99.90;;;;;;5050030;28;20044;-82
2023/12/08 08:24:33;;;;;;;12.63;7.07;;;3.20;99.90;;;;;;5046717;28;20061;-83
2023/12/08 08:26:59;;;;;;;13.18;7.70;;;3.20;99.90;;;;;;5077493;28;20125;-82
2023/12/08 08:29:24;;;;;;;10.70;6.28;;;3.30;99.90;;;;;;5039110;28;20041;-81
2023/12/08 08:31:52;;;;;;;11.45;6.32;;;3.30;99.90;;;;;;5049394;28;20398;-82
2023/12/08 08:34:18;;;;;;;12.10;6.13;;;3.30;99.90;;;;;;5045760;28;20496;-82
2023/12/08 08:36:44;;;;;;;10.45;5.95;;;3.30;99.90;;;;;;5041277;28;20060;-83
2023/12/08 08:39:09;;;;;;;13.85;7.55;;;3.40;99.90;;;;;;5048016;28;20017;-82
2023/12/08 08:41:35;;;;;;;13.15;6.95;;;3.30;99.90;;;;;;5048698;28;20544;-81
2023/12/08 08:44:01;;;;;;;11.77;7.07;;;3.40;99.90;;;;;;5047620;28;20025;-81
2023/12/08 08:46:27;;;;;;;12.02;6.57;;;3.40;99.90;;;;;;5042013;28;20033;-81
2023/12/08 08:48:54;;;;;;;9.88;5.32;;;3.40;99.90;;;;;;5066539;28;20203;-82
2023/12/08 08:51:21;;;;;;;12.75;7.55;;;3.50;99.90;;;;;;5049255;28;20104;-82
2023/12/08 08:53:49;;;;;;;10.02;5.50;;;3.50;99.90;;;;;;5046296;28;20531;-82
2023/12/08 08:56:16;;;;;;;9.88;5.60;;;3.50;99.90;;;;;;5036955;28;20032;-83
2023/12/08 08:58:42;;;;;;;10.82;5.60;;;3.50;99.90;;;;;;5033443;28;20037;-80
2023/12/08 09:01:07;;;;;;;10.10;5.30;;;3.50;99.90;;;;;;5030481;28;20450;-81
2023/12/08 09:03:33;;;;;;;12.43;5.95;;;3.50;99.90;;;;;;5080957;28;20079;-82
2023/12/08 09:05:59;;;;;;;11.32;5.68;;;3.50;99.90;;;;;;5049284;28;20028;-82
2023/12/08 09:08:24;;;;;;;11.60;6.28;;;3.50;99.90;;;;;;5044001;28;20037;-82
2023/12/08 09:10:50;;;;;;;11.23;5.22;;;3.60;99.90;;;;;;5065250;28;20032;-82
2023/12/08 09:13:16;;;;;;;11.82;5.55;;;3.60;99.90;;;;;;5030735;28;20025;-82
2023/12/08 09:15:43;;;;;;;7.93;4.45;;;3.60;99.90;;;;;;5047412;28;20032;-81
2023/12/08 09:18:09;;;;;;;10.85;5.70;;;3.60;99.90;;;;;;5082923;28;20385;-82
2023/12/08 09:20:36;;;;;;;8.77;4.55;;;3.70;99.90;;;;;;5047284;28;20039;-82
2023/12/08 09:23:02;;;;;;;7.70;4.60;;;3.70;99.90;;;;;;5078797;28;20083;-82
2023/12/08 09:25:28;;;;;;;10.25;5.97;;;3.70;99.90;;;;;;5079127;28;20025;-82
2023/12/08 09:27:54;;;;;;;10.82;5.53;;;3.80;99.90;;;;;;5037448;28;20037;-81
2023/12/08 09:30:19;;;;;;;9.82;5.63;;;3.80;99.90;;;;;;5048313;28;20039;-82
2023/12/08 09:32:45;;;;;;;10.52;6.25;;;3.80;99.90;;;;;;5046770;28;20029;-81
2023/12/08 09:35:11;;;;;;;9.10;5.30;;;3.80;99.90;;;;;;5046360;28;20111;-82
2023/12/08 09:37:36;;;;;;;14.70;7.63;;;3.90;99.90;;;;;;5030091;28;20060;-82
2023/12/08 09:40:04;;;;;;;12.93;7.10;;;3.90;99.90;;;;;;5048070;28;20496;-82
2023/12/08 09:42:36;;;;;;;12.25;5.75;;;3.90;99.90;;;;;;5037007;28;20095;-82
2023/12/08 09:45:04;;;;;;;10.50;5.85;;;3.90;99.90;;;;;;5045009;28;20044;-82
2023/12/08 09:47:34;;;;;;;12.20;6.32;;;3.90;99.90;;;;;;5046021;28;20055;-81
2023/12/08 09:50:01;;;;;;;11.02;6.30;;;4.00;99.90;;;;;;5063725;28;20063;-80
2023/12/08 09:52:29;;;;;;;10.15;6.25;;;4.00;99.90;;;;;;5063599;28;20055;-80
2023/12/08 09:54:56;;;;;;;10.07;5.50;;;4.10;99.90;;;;;;5047207;28;20024;-81
2023/12/08 09:57:22;;;;;;;11.50;7.35;;;4.10;99.90;;;;;;5044321;28;20022;-81
2023/12/08 09:59:50;;;;;;;11.27;5.85;;;4.20;99.90;;;;;;5044423;28;20072;-81
2023/12/08 10:02:16;;;;;;;13.23;6.95;;;4.20;99.90;;;;;;5048083;28;20017;-82
2023/12/08 10:04:41;;;;;;;12.38;7.32;;;4.20;99.90;;;;;;5060008;28;20091;-81
2023/12/08 10:07:10;;;;;;;11.48;5.90;;;4.30;99.90;;;;;;5043067;28;20482;-81
2023/12/08 10:09:37;;;;;;;11.55;5.78;;;4.30;99.90;;;;;;5044686;28;20051;-81
2023/12/08 10:12:03;;;;;;;11.23;6.25;;;4.40;99.90;;;;;;5078719;28;20048;-81
2023/12/08 10:14:29;;;;;;;8.90;5.07;;;4.40;99.90;;;;;;5043314;28;20060;-81
2023/12/08 10:16:54;;;;;;;10.68;5.63;;;4.50;99.90;;;;;;5046654;28;20028;-81
2023/12/08 10:19:21;;;;;;;14.00;8.25;;;4.50;99.90;;;;;;5047120;28;20477;-81
2023/12/08 10:22:02;;;;;;;17.52;8.85;;;4.60;99.90;;;;;;5029279;28;20427;-81
2023/12/08 10:24:30;;;;;;;13.32;7.38;;;4.60;99.90;;;;;;5048026;28;20020;-81
2023/12/08 10:26:58;;;;;;;13.10;6.45;;;4.70;99.90;;;;;;5044763;28;20021;-80
2023/12/08 10:29:28;;;;;;;16.15;7.10;;;4.70;99.90;;;;;;5046670;28;20040;-81
2023/12/08 10:31:55;;;;;;;14.00;7.47;;;4.70;99.90;;;;;;5061715;28;20052;-82
2023/12/08 10:34:22;;;;;;;13.70;7.05;;;4.70;99.90;;;;;;5028070;28;20025;-81
2023/12/08 10:36:48;;;;;;;12.48;6.57;;;4.80;99.90;;;;;;5037821;28;20445;-81
2023/12/08 10:39:14;;;;;;;14.13;7.60;;;4.80;99.90;;;;;;5042719;28;20017;-81
2023/12/08 10:41:39;;;;;;;14.52;6.72;;;4.80;99.90;;;;;;5046001;28;20438;-82
2023/12/08 10:44:08;;;;;;;14.45;6.15;;;4.80;99.90;;;;;;5061715;28;20132;-81
2023/12/08 10:46:34;;;;;;;14.48;7.65;;;4.90;99.90;;;;;;5044175;28;20009;-81
2023/12/08 10:49:01;;;;;;;14.65;6.88;;;4.90;99.90;;;;;;5031110;28;20091;-82
2023/12/08 10:51:29;;;;;;;12.82;6.63;;;4.90;99.90;;;;;;5076481;28;20029;-81
2023/12/08 10:53:55;;;;;;;18.45;8.70;;;5.00;99.90;;;;;;5038600;28;20048;-81
2023/12/08 10:56:21;;;;;;;12.13;6.95;;;5.00;99.90;;;;;;5045053;28;20025;-81
2023/12/08 10:58:54;;;;;;;14.75;7.38;;;5.00;99.90;;;;;;5074574;28;20044;-81
2023/12/08 11:01:20;;;;;;;19.58;9.02;;;5.00;99.90;;;;;;5059045;28;20493;-81
2023/12/08 11:03:48;;;;;;;19.23;9.15;;;5.10;99.90;;;;;;5045681;28;20098;-81
2023/12/08 11:06:30;;;;;;;21.33;9.15;;;5.10;99.90;;;;;;5077834;28;20403;-82
2023/12/08 11:09:00;;;;;;;18.55;8.95;;;5.20;99.90;;;;;;5064067;28;20072;-81
2023/12/08 11:11:29;;;;;;;15.43;8.15;;;5.20;99.90;;;;;;5076006;28;20021;-81
2023/12/08 11:14:22;;;;;;;17.30;7.60;;;5.20;99.90;;;;;;5034665;28;20144;-82
2023/12/08 11:17:00;;;;;;;17.70;8.27;;;5.30;99.90;;;;;;5046291;28;20029;-81
2023/12/08 11:19:26;;;;;;;19.88;8.43;;;5.30;99.90;;;;;;5040234;28;20078;-82
2023/12/08 11:21:53;;;;;;;16.67;8.13;;;5.30;99.90;;;;;;5073403;28;20163;-81
2023/12/08 11:24:19;;;;;;;16.83;7.13;;;5.30;99.90;;;;;;5034059;28;20091;-81
2023/12/08 11:26:51;;;;;;;17.77;8.60;;;5.40;99.90;;;;;;5036158;28;20025;-81
2023/12/08 11:29:19;;;;;;;17.83;8.38;;;5.40;99.90;;;;;;5062349;28;20404;-81
2023/12/08 11:32:14;;;;;;;20.65;10.05;;;5.40;99.90;;;;;;5074501;28;20044;-81
2023/12/08 11:35:01;;;;;;;19.10;9.88;;;5.50;99.90;;;;;;5061250;28;20120;-82
2023/12/08 11:37:33;;;;;;;21.42;9.32;;;5.50;99.90;;;;;;5043783;28;20025;-82
2023/12/08 11:40:06;;;;;;;20.60;9.43;;;5.60;99.90;;;;;;5043125;28;20511;-82
2023/12/08 11:42:33;;;;;;;19.90;8.50;;;5.60;99.90;;;;;;5047282;28;20029;-81
2023/12/08 11:44:58;;;;;;;19.42;8.35;;;5.60;99.90;;;;;;5044415;28;20033;-81
2023/12/08 11:47:25;;;;;;;15.88;8.38;;;5.70;99.90;;;;;;5078002;28;20033;-81
2023/12/08 11:49:53;;;;;;;22.17;8.95;;;5.70;99.90;;;;;;5048597;28;20389;-83
2023/12/08 11:52:28;;;;;;;20.95;8.98;;;5.70;99.90;;;;;;5028735;28;20244;-81
2023/12/08 11:55:02;;;;;;;24.17;10.95;;;5.80;99.90;;;;;;5051403;28;20029;-82
2023/12/08 11:57:28;;;;;;;21.38;9.63;;;5.80;99.90;;;;;;5049257;28;20025;-82
2023/12/08 11:59:55;;;;;;;22.85;11.80;;;5.90;99.90;;;;;;5045838;28;20421;-81
2023/12/08 12:02:21;;;;;;;21.65;8.65;;;5.90;99.90;;;;;;5066905;28;20295;-81
2023/12/08 12:04:50;;;;;;;25.15;11.35;;;6.00;99.90;;;;;;5048699;28;20032;-82
2023/12/08 12:07:19;;;;;;;17.25;9.02;;;6.00;99.90;;;;;;5049172;28;20106;-82
2023/12/08 12:09:49;;;;;;;24.75;10.70;;;6.10;99.90;;;;;;5080598;28;20041;-82
2023/12/08 12:12:25;;;;;;;16.73;8.00;;;6.10;99.90;;;;;;5042557;28;20263;-81
2023/12/08 12:14:55;;;;;;;16.50;8.02;;;6.20;99.90;;;;;;5050022;28;20489;-81
2023/12/08 12:17:24;;;;;;;16.58;7.28;;;6.20;99.90;;;;;;5028738;28;20383;-81
2023/12/08 12:19:51;;;;;;;14.90;7.63;;;6.30;99.90;;;;;;5041468;28;20474;-81
2023/12/08 12:22:17;;;;;;;17.77;8.35;;;6.30;99.90;;;;;;5063539;28;20028;-81
2023/12/08 12:24:43;;;;;;;23.70;10.32;;;6.30;99.90;;;;;;5048946;28;20377;-82
2023/12/08 12:27:09;;;;;;;21.35;10.10;;;6.30;99.90;;;;;;5030239;28;21500;-81
2023/12/08 12:29:35;;;;;;;19.52;9.40;;;6.40;99.90;;;;;;5031373;28;20119;-81
2023/12/08 12:32:03;;;;;;;20.38;8.13;;;6.40;99.90;;;;;;5048612;28;20540;-82
2023/12/08 12:34:29;;;;;;;20.83;9.55;;;6.40;99.90;;;;;;5044321;28;20100;-81
2023/12/08 12:36:54;;;;;;;23.38;11.38;;;6.50;99.90;;;;;;5042974;28;20044;-81
2023/12/08 12:39:25;;;;;;;19.90;8.60;;;6.50;99.90;;;;;;5021436;28;20083;-81
2023/12/08 12:41:58;;;;;;;25.67;10.13;;;6.50;99.90;;;;;;5030021;28;20021;-81
2023/12/08 12:44:36;;;;;;;21.60;9.27;;;6.60;99.90;;;;;;5080377;28;20025;-81
2023/12/08 12:47:02;;;;;;;19.70;9.10;;;6.60;99.90;;;;;;5056896;28;20026;-81
2023/12/08 12:49:28;;;;;;;24.95;11.10;;;6.70;99.90;;;;;;5062904;28;20040;-81